createdAt,value
2016-09-04T00:00:22.421Z,0
2016-09-04T00:01:22.404Z,0
2016-09-04T00:02:22.440Z,0
2016-09-04T00:03:22.417Z,0
2016-09-04T00:04:22.467Z,0
2016-09-04T00:05:22.416Z,0
2016-09-04T00:06:22.451Z,0
2016-09-04T00:07:22.412Z,0
2016-09-04T00:08:22.436Z,0
2016-09-04T00:09:22.461Z,0
2016-09-04T00:10:22.452Z,0
2016-09-04T00:11:22.461Z,0
2016-09-04T00:12:22.452Z,0
2016-09-04T00:13:22.468Z,0
2016-09-04T00:14:22.463Z,0
2016-09-04T00:15:22.434Z,0
2016-09-04T00:16:22.478Z,0
2016-09-04T00:17:22.383Z,0
2016-09-04T00:18:22.377Z,0
2016-09-04T00:19:22.389Z,0
2016-09-04T00:20:22.463Z,0
2016-09-04T00:21:22.434Z,0
2016-09-04T00:22:22.411Z,0
2016-09-04T00:23:22.402Z,0
2016-09-04T00:24:22.422Z,0
2016-09-04T00:25:22.448Z,0
2016-09-04T00:26:22.482Z,0
2016-09-04T00:27:22.455Z,0
2016-09-04T00:28:22.422Z,0
2016-09-04T00:29:22.469Z,0
2016-09-04T00:30:22.405Z,0
2016-09-04T00:31:22.454Z,0
2016-09-04T00:32:22.403Z,0
2016-09-04T00:33:22.484Z,0
2016-09-04T00:34:22.425Z,0
2016-09-04T00:35:22.409Z,0
2016-09-04T00:36:22.444Z,0
2016-09-04T00:37:22.436Z,0
2016-09-04T00:38:22.429Z,0
2016-09-04T00:39:22.421Z,0
2016-09-04T00:40:22.420Z,0
2016-09-04T00:41:22.407Z,0
2016-09-04T00:42:22.462Z,0
2016-09-04T00:43:22.447Z,0
2016-09-04T00:44:22.480Z,0
2016-09-04T00:45:22.483Z,0
2016-09-04T00:46:22.460Z,0
2016-09-04T00:47:22.465Z,0
2016-09-04T00:48:22.543Z,0
2016-09-04T00:49:22.462Z,0
2016-09-04T00:50:22.464Z,0
2016-09-04T00:51:22.471Z,0
2016-09-04T00:52:22.441Z,0
2016-09-04T00:53:22.414Z,0
2016-09-04T00:54:22.408Z,0
2016-09-04T00:55:22.419Z,0
2016-09-04T00:56:22.447Z,0
2016-09-04T00:57:22.440Z,0
2016-09-04T00:58:22.444Z,0
2016-09-04T00:59:22.442Z,0
2016-09-04T01:00:22.435Z,0
2016-09-04T01:01:22.440Z,0
2016-09-04T01:02:22.489Z,0
2016-09-04T01:03:22.421Z,0
2016-09-04T01:04:22.458Z,0
2016-09-04T01:05:22.421Z,0
2016-09-04T01:06:22.442Z,0
2016-09-04T01:07:24.374Z,0
2016-09-04T01:08:22.473Z,0
2016-09-04T01:09:22.464Z,0
2016-09-04T01:10:22.527Z,0
2016-09-04T01:11:22.832Z,0
2016-09-04T01:12:22.435Z,0
2016-09-04T01:13:22.425Z,0
2016-09-04T01:14:22.459Z,0
2016-09-04T01:15:22.448Z,0
2016-09-04T01:16:22.457Z,0
2016-09-04T01:17:22.551Z,0
2016-09-04T01:18:22.455Z,0
2016-09-04T01:19:22.484Z,0
2016-09-04T01:20:22.551Z,0
2016-09-04T01:21:22.441Z,0
2016-09-04T01:22:22.577Z,0
2016-09-04T01:23:22.495Z,0
2016-09-04T01:24:22.575Z,0
2016-09-04T01:25:22.487Z,0
2016-09-04T01:26:22.615Z,0
2016-09-04T01:27:22.493Z,0
2016-09-04T01:28:22.473Z,0
2016-09-04T01:29:22.602Z,0
2016-09-04T01:30:22.448Z,0
2016-09-04T01:31:22.631Z,0
2016-09-04T01:32:22.498Z,0
2016-09-04T01:33:22.631Z,0
2016-09-04T01:34:22.483Z,0
2016-09-04T01:35:22.484Z,0
2016-09-04T01:36:22.451Z,0
2016-09-04T01:37:22.589Z,0
2016-09-04T01:38:22.510Z,0
2016-09-04T01:39:22.631Z,0
2016-09-04T01:40:22.725Z,0
2016-09-04T01:41:22.557Z,0
2016-09-04T01:42:22.508Z,0
2016-09-04T01:43:22.513Z,0
2016-09-04T01:44:22.489Z,0
2016-09-04T01:45:22.502Z,0
2016-09-04T01:46:22.532Z,0
2016-09-04T01:47:22.465Z,0
2016-09-04T01:48:22.662Z,0
2016-09-04T01:49:22.465Z,0
2016-09-04T01:50:22.516Z,0
2016-09-04T01:51:22.562Z,0
2016-09-04T01:52:22.499Z,0
2016-09-04T01:53:22.658Z,0
2016-09-04T01:54:22.492Z,0
2016-09-04T01:55:22.502Z,0
2016-09-04T01:56:22.542Z,0
2016-09-04T01:57:22.704Z,0
2016-09-04T01:58:22.497Z,0
2016-09-04T01:59:22.477Z,0
2016-09-04T02:00:22.513Z,0
2016-09-04T02:01:22.710Z,0
2016-09-04T02:02:22.483Z,0
2016-09-04T02:03:22.542Z,0
2016-09-04T02:04:22.543Z,0
2016-09-04T02:05:22.496Z,0
2016-09-04T02:06:22.584Z,0
2016-09-04T02:07:22.677Z,0
2016-09-04T02:08:22.569Z,0
2016-09-04T02:09:22.543Z,0
2016-09-04T02:10:22.722Z,0
2016-09-04T02:11:22.557Z,0
2016-09-04T02:12:22.589Z,0
2016-09-04T02:13:22.575Z,0
2016-09-04T02:14:22.624Z,0
2016-09-04T02:15:22.619Z,0
2016-09-04T02:16:22.489Z,0
2016-09-04T02:17:22.513Z,0
2016-09-04T02:18:22.495Z,0
2016-09-04T02:19:22.512Z,0
2016-09-04T02:20:22.529Z,0
2016-09-04T02:21:22.516Z,0
2016-09-04T02:22:22.558Z,0
2016-09-04T02:23:22.503Z,0
2016-09-04T02:24:22.524Z,0
2016-09-04T02:25:22.529Z,0
2016-09-04T02:26:22.560Z,0
2016-09-04T02:27:22.500Z,0
2016-09-04T02:28:22.527Z,0
2016-09-04T02:29:22.525Z,0
2016-09-04T02:30:22.513Z,0
2016-09-04T02:31:22.518Z,0
2016-09-04T02:32:22.524Z,0
2016-09-04T02:33:22.529Z,0
2016-09-04T02:34:22.542Z,0
2016-09-04T02:35:22.507Z,0
2016-09-04T02:36:22.517Z,0
2016-09-04T02:37:22.512Z,0
2016-09-04T02:38:22.503Z,0
2016-09-04T02:39:22.526Z,0
2016-09-04T02:40:22.514Z,0
2016-09-04T02:41:22.514Z,0
2016-09-04T02:42:22.515Z,0
2016-09-04T02:43:22.529Z,0
2016-09-04T02:44:22.515Z,0
2016-09-04T02:45:22.548Z,0
2016-09-04T02:46:22.510Z,0
2016-09-04T02:47:22.534Z,0
2016-09-04T02:48:22.573Z,0
2016-09-04T02:49:22.504Z,0
2016-09-04T02:50:22.555Z,0
2016-09-04T02:51:22.532Z,0
2016-09-04T02:52:22.560Z,0
2016-09-04T02:53:22.547Z,0
2016-09-04T02:54:22.517Z,0
2016-09-04T02:55:22.556Z,0
2016-09-04T02:56:22.559Z,0
2016-09-04T02:57:22.580Z,0
2016-09-04T02:58:22.605Z,0
2016-09-04T02:59:22.604Z,0
2016-09-04T03:00:22.556Z,0
2016-09-04T03:01:22.544Z,0
2016-09-04T03:02:22.540Z,0
2016-09-04T03:03:22.549Z,0
2016-09-04T03:04:22.546Z,0
2016-09-04T03:05:22.533Z,0
2016-09-04T03:06:22.533Z,0
2016-09-04T03:07:22.591Z,0
2016-09-04T03:08:22.546Z,0
2016-09-04T03:09:22.552Z,0
2016-09-04T03:10:22.591Z,0
2016-09-04T03:11:22.529Z,0
2016-09-04T03:12:22.577Z,0
2016-09-04T03:13:22.564Z,0
2016-09-04T03:14:22.627Z,0
2016-09-04T03:15:22.560Z,0
2016-09-04T03:16:22.565Z,0
2016-09-04T03:17:22.560Z,0
2016-09-04T03:18:22.583Z,0
2016-09-04T03:19:22.617Z,0
2016-09-04T03:20:22.610Z,0
2016-09-04T03:21:22.606Z,0
2016-09-04T03:22:22.562Z,0
2016-09-04T03:23:22.578Z,0
2016-09-04T03:24:22.577Z,0
2016-09-04T03:25:22.581Z,0
2016-09-04T03:26:22.587Z,0
2016-09-04T03:27:22.578Z,0
2016-09-04T03:28:22.564Z,0
2016-09-04T03:29:22.563Z,0
2016-09-04T03:30:22.554Z,0
2016-09-04T03:31:22.580Z,0
2016-09-04T03:32:22.562Z,0
2016-09-04T03:33:22.576Z,0
2016-09-04T03:34:22.583Z,0
2016-09-04T03:35:22.576Z,0
2016-09-04T03:36:22.597Z,0
2016-09-04T03:37:22.592Z,0
2016-09-04T03:38:22.578Z,0
2016-09-04T03:39:22.641Z,0
2016-09-04T03:40:22.593Z,0
2016-09-04T03:41:22.594Z,0
2016-09-04T03:42:22.586Z,0
2016-09-04T03:43:22.560Z,0
2016-09-04T03:44:22.586Z,0
2016-09-04T03:45:22.578Z,0
2016-09-04T03:46:22.591Z,0
2016-09-04T03:47:22.572Z,0
2016-09-04T03:48:22.608Z,0
2016-09-04T03:49:22.585Z,0
2016-09-04T03:50:22.584Z,0
2016-09-04T03:51:22.622Z,0
2016-09-04T03:52:22.593Z,0
2016-09-04T03:53:22.593Z,0
2016-09-04T03:54:22.584Z,0
2016-09-04T03:55:22.590Z,0
2016-09-04T03:56:22.607Z,0
2016-09-04T03:57:22.608Z,0
2016-09-04T03:58:22.643Z,0
2016-09-04T03:59:22.614Z,0
2016-09-04T04:00:22.618Z,0
2016-09-04T04:01:22.594Z,0
2016-09-04T04:02:22.603Z,0
2016-09-04T04:03:22.621Z,0
2016-09-04T04:04:22.622Z,0
2016-09-04T04:05:22.613Z,0
2016-09-04T04:06:22.637Z,0
2016-09-04T04:07:22.654Z,0
2016-09-04T04:08:22.640Z,0
2016-09-04T04:09:22.628Z,0
2016-09-04T04:10:22.624Z,0
2016-09-04T04:11:22.627Z,0
2016-09-04T04:12:22.620Z,0
2016-09-04T04:13:22.611Z,0
2016-09-04T04:14:23.610Z,0
2016-09-04T04:15:22.610Z,0
2016-09-04T04:16:22.628Z,0
2016-09-04T04:17:22.627Z,0
2016-09-04T04:18:22.639Z,0
2016-09-04T04:19:22.616Z,0
2016-09-04T04:20:22.640Z,0
2016-09-04T04:21:22.665Z,0
2016-09-04T04:22:22.617Z,0
2016-09-04T04:23:22.641Z,0
2016-09-04T04:24:22.640Z,0
2016-09-04T04:25:22.655Z,0
2016-09-04T04:26:22.615Z,0
2016-09-04T04:27:22.593Z,0
2016-09-04T04:28:22.627Z,0
2016-09-04T04:29:22.638Z,0
2016-09-04T04:30:22.629Z,0
2016-09-04T04:31:22.645Z,0
2016-09-04T04:32:22.642Z,0
2016-09-04T04:33:22.669Z,0
2016-09-04T04:34:22.699Z,0
2016-09-04T04:35:22.646Z,0
2016-09-04T04:36:22.688Z,0
2016-09-04T04:37:22.656Z,0
2016-09-04T04:38:22.661Z,0
2016-09-04T04:39:22.639Z,0
2016-09-04T04:40:22.633Z,0
2016-09-04T04:41:22.640Z,0
2016-09-04T04:42:22.638Z,0
2016-09-04T04:43:22.635Z,0
2016-09-04T04:44:22.624Z,0
2016-09-04T04:45:22.626Z,0
2016-09-04T04:46:22.653Z,0
2016-09-04T04:47:22.661Z,0
2016-09-04T04:48:22.718Z,0
2016-09-04T04:49:22.628Z,0
2016-09-04T04:50:22.642Z,0
2016-09-04T04:51:23.676Z,0
2016-09-04T04:52:22.653Z,0
2016-09-04T04:53:22.657Z,0
2016-09-04T04:54:22.663Z,0
2016-09-04T04:55:22.656Z,0
2016-09-04T04:56:22.677Z,5
2016-09-04T04:57:22.637Z,5
2016-09-04T04:58:22.674Z,5
2016-09-04T04:59:22.663Z,5
2016-09-04T05:00:22.675Z,5
2016-09-04T05:01:22.646Z,5
2016-09-04T05:02:22.644Z,5
2016-09-04T05:03:22.655Z,5
2016-09-04T05:04:22.657Z,5
2016-09-04T05:05:22.668Z,5
2016-09-04T05:06:22.660Z,5
2016-09-04T05:07:22.673Z,10
2016-09-04T05:08:22.675Z,10
2016-09-04T05:09:22.687Z,10
2016-09-04T05:10:22.649Z,10
2016-09-04T05:11:22.656Z,10
2016-09-04T05:12:22.687Z,15
2016-09-04T05:13:22.749Z,15
2016-09-04T05:14:22.718Z,15
2016-09-04T05:15:22.690Z,20
2016-09-04T05:16:22.665Z,20
2016-09-04T05:17:22.658Z,20
2016-09-04T05:18:22.738Z,20
2016-09-04T05:19:22.657Z,20
2016-09-04T05:20:22.703Z,15
2016-09-04T05:21:22.642Z,15
2016-09-04T05:22:22.676Z,15
2016-09-04T05:23:22.702Z,20
2016-09-04T05:24:22.675Z,20
2016-09-04T05:25:22.741Z,25
2016-09-04T05:26:22.676Z,30
2016-09-04T05:27:22.739Z,40
2016-09-04T05:28:22.678Z,45
2016-09-04T05:29:22.681Z,45
2016-09-04T05:30:22.657Z,45
2016-09-04T05:31:22.688Z,50
2016-09-04T05:32:22.669Z,55
2016-09-04T05:33:22.718Z,55
2016-09-04T05:34:22.728Z,50
2016-09-04T05:35:22.695Z,40
2016-09-04T05:36:22.692Z,40
2016-09-04T05:37:22.707Z,40
2016-09-04T05:38:22.669Z,45
2016-09-04T05:39:22.690Z,45
2016-09-04T05:40:22.695Z,45
2016-09-04T05:41:22.675Z,45
2016-09-04T05:42:22.696Z,40
2016-09-04T05:43:22.673Z,40
2016-09-04T05:44:22.710Z,30
2016-09-04T05:45:22.699Z,25
2016-09-04T05:46:22.706Z,25
2016-09-04T05:47:22.717Z,20
2016-09-04T05:48:22.727Z,20
2016-09-04T05:49:22.704Z,25
2016-09-04T05:50:22.751Z,25
2016-09-04T05:51:22.717Z,25
2016-09-04T05:52:22.704Z,30
2016-09-04T05:53:22.736Z,30
2016-09-04T05:54:22.729Z,25
2016-09-04T05:55:22.704Z,25
2016-09-04T05:56:22.753Z,25
2016-09-04T05:57:22.720Z,25
2016-09-04T05:58:22.741Z,20
2016-09-04T05:59:22.686Z,20
2016-09-04T06:00:22.739Z,25
2016-09-04T06:01:22.719Z,25
2016-09-04T06:02:22.710Z,25
2016-09-04T06:03:22.763Z,25
2016-09-04T06:04:22.692Z,30
2016-09-04T06:05:22.742Z,30
2016-09-04T06:06:22.705Z,30
2016-09-04T06:07:22.752Z,25
2016-09-04T06:08:22.733Z,25
2016-09-04T06:09:22.756Z,30
2016-09-04T06:10:22.721Z,30
2016-09-04T06:11:22.726Z,30
2016-09-04T06:12:22.716Z,35
2016-09-04T06:13:22.721Z,35
2016-09-04T06:14:22.725Z,35
2016-09-04T06:15:22.737Z,40
2016-09-04T06:16:22.735Z,45
2016-09-04T06:17:22.748Z,45
2016-09-04T06:18:22.751Z,40
2016-09-04T06:19:22.698Z,35
2016-09-04T06:20:22.740Z,35
2016-09-04T06:21:22.737Z,30
2016-09-04T06:22:22.723Z,30
2016-09-04T06:23:22.737Z,30
2016-09-04T06:24:22.759Z,30
2016-09-04T06:25:22.748Z,25
2016-09-04T06:26:22.827Z,25
2016-09-04T06:27:22.741Z,30
2016-09-04T06:28:22.773Z,30
2016-09-04T06:29:22.768Z,30
2016-09-04T06:30:22.722Z,30
2016-09-04T06:31:22.789Z,25
2016-09-04T06:32:22.752Z,25
2016-09-04T06:33:22.757Z,25
2016-09-04T06:34:22.766Z,30
2016-09-04T06:35:22.743Z,30
2016-09-04T06:36:22.746Z,35
2016-09-04T06:37:22.766Z,30
2016-09-04T06:38:22.771Z,30
2016-09-04T06:39:22.756Z,35
2016-09-04T06:40:22.742Z,40
2016-09-04T06:41:22.778Z,40
2016-09-04T06:42:22.796Z,40
2016-09-04T06:43:22.788Z,40
2016-09-04T06:44:22.735Z,50
2016-09-04T06:45:22.740Z,50
2016-09-04T06:46:22.738Z,50
2016-09-04T06:47:22.786Z,55
2016-09-04T06:48:22.755Z,60
2016-09-04T06:49:22.758Z,65
2016-09-04T06:50:22.777Z,55
2016-09-04T06:51:22.771Z,65
2016-09-04T06:52:22.790Z,75
2016-09-04T06:53:22.770Z,75
2016-09-04T06:54:22.769Z,65
2016-09-04T06:55:22.844Z,55
2016-09-04T06:56:22.783Z,50
2016-09-04T06:57:22.761Z,60
2016-09-04T06:58:22.769Z,65
2016-09-04T06:59:22.772Z,60
2016-09-04T07:00:22.814Z,45
2016-09-04T07:01:22.759Z,35
2016-09-04T07:02:22.787Z,35
2016-09-04T07:03:22.776Z,35
2016-09-04T07:04:22.820Z,40
2016-09-04T07:05:22.814Z,50
2016-09-04T07:06:22.809Z,60
2016-09-04T07:07:22.802Z,65
2016-09-04T07:08:22.815Z,60
2016-09-04T07:09:22.790Z,55
2016-09-04T07:10:22.797Z,55
2016-09-04T07:11:22.785Z,60
2016-09-04T07:12:22.771Z,55
2016-09-04T07:13:22.801Z,55
2016-09-04T07:14:22.871Z,60
2016-09-04T07:15:23.472Z,55
2016-09-04T07:16:22.816Z,55
2016-09-04T07:17:22.841Z,60
2016-09-04T07:18:22.804Z,60
2016-09-04T07:19:22.807Z,55
2016-09-04T07:20:22.830Z,50
2016-09-04T07:21:22.800Z,65
2016-09-04T07:22:22.800Z,85
2016-09-04T07:23:22.814Z,85
2016-09-04T07:24:22.802Z,85
2016-09-04T07:25:22.817Z,70
2016-09-04T07:26:22.793Z,70
2016-09-04T07:27:22.802Z,75
2016-09-04T07:28:22.807Z,80
2016-09-04T07:29:22.771Z,75
2016-09-04T07:30:22.821Z,60
2016-09-04T07:31:22.847Z,55
2016-09-04T07:32:22.831Z,60
2016-09-04T07:33:22.830Z,65
2016-09-04T07:34:22.834Z,70
2016-09-04T07:35:22.808Z,60
2016-09-04T07:36:22.836Z,65
2016-09-04T07:37:22.853Z,65
2016-09-04T07:38:22.835Z,65
2016-09-04T07:39:22.847Z,60
2016-09-04T07:40:22.832Z,60
2016-09-04T07:41:22.863Z,95
2016-09-04T07:42:22.822Z,105
2016-09-04T07:43:22.832Z,95
2016-09-04T07:44:22.895Z,95
2016-09-04T07:45:22.862Z,100
2016-09-04T07:46:22.839Z,105
2016-09-04T07:47:22.850Z,115
2016-09-04T07:48:22.876Z,115
2016-09-04T07:49:22.895Z,140
2016-09-04T07:50:22.820Z,165
2016-09-04T07:51:22.848Z,195
2016-09-04T07:52:22.823Z,200
2016-09-04T07:53:22.834Z,200
2016-09-04T07:54:22.847Z,195
2016-09-04T07:55:22.908Z,210
2016-09-04T07:56:22.833Z,245
2016-09-04T07:57:22.824Z,270
2016-09-04T07:58:22.928Z,255
2016-09-04T07:59:22.876Z,220
2016-09-04T08:00:22.900Z,235
2016-09-04T08:01:22.877Z,200
2016-09-04T08:02:22.847Z,180
2016-09-04T08:03:22.832Z,190
2016-09-04T08:04:22.923Z,195
2016-09-04T08:05:22.899Z,195
2016-09-04T08:06:22.856Z,195
2016-09-04T08:07:22.862Z,200
2016-09-04T08:08:22.877Z,190
2016-09-04T08:09:22.892Z,205
2016-09-04T08:10:22.853Z,180
2016-09-04T08:11:22.820Z,160
2016-09-04T08:12:22.845Z,140
2016-09-04T08:13:22.817Z,150
2016-09-04T08:14:22.878Z,160
2016-09-04T08:15:22.833Z,175
2016-09-04T08:16:22.831Z,180
2016-09-04T08:17:22.835Z,215
2016-09-04T08:18:22.864Z,205
2016-09-04T08:19:22.864Z,205
2016-09-04T08:20:22.871Z,190
2016-09-04T08:21:22.862Z,155
2016-09-04T08:22:22.847Z,135
2016-09-04T08:23:22.860Z,150
2016-09-04T08:24:22.866Z,150
2016-09-04T08:25:22.875Z,130
2016-09-04T08:26:22.893Z,145
2016-09-04T08:27:22.869Z,160
2016-09-04T08:28:22.912Z,150
2016-09-04T08:29:22.896Z,165
2016-09-04T08:30:22.875Z,185
2016-09-04T08:31:22.854Z,175
2016-09-04T08:32:22.864Z,170
2016-09-04T08:33:22.881Z,165
2016-09-04T08:34:22.868Z,230
2016-09-04T08:35:22.866Z,250
2016-09-04T08:36:22.854Z,215
2016-09-04T08:37:22.880Z,190
2016-09-04T08:38:22.873Z,215
2016-09-04T08:39:22.894Z,310
2016-09-04T08:40:22.864Z,415
2016-09-04T08:41:22.859Z,400
2016-09-04T08:42:22.910Z,385
2016-09-04T08:43:22.899Z,360
2016-09-04T08:44:22.917Z,430
2016-09-04T08:45:22.942Z,440
2016-09-04T08:46:22.949Z,345
2016-09-04T08:47:22.925Z,345
2016-09-04T08:48:22.898Z,335
2016-09-04T08:49:22.940Z,460
2016-09-04T08:50:22.887Z,415
2016-09-04T08:51:22.880Z,400
2016-09-04T08:52:22.930Z,295
2016-09-04T08:53:22.930Z,385
2016-09-04T08:54:22.951Z,410
2016-09-04T08:55:22.960Z,405
2016-09-04T08:56:22.910Z,470
2016-09-04T08:57:22.914Z,480
2016-09-04T08:58:22.915Z,495
2016-09-04T08:59:22.882Z,470
2016-09-04T09:00:22.902Z,470
2016-09-04T09:01:22.896Z,350
2016-09-04T09:02:22.916Z,390
2016-09-04T09:03:22.960Z,360
2016-09-04T09:04:22.934Z,345
2016-09-04T09:05:22.898Z,285
2016-09-04T09:06:22.901Z,250
2016-09-04T09:07:22.887Z,310
2016-09-04T09:08:22.966Z,260
2016-09-04T09:09:22.895Z,270
2016-09-04T09:10:22.949Z,245
2016-09-04T09:11:22.926Z,260
2016-09-04T09:12:22.947Z,235
2016-09-04T09:13:22.924Z,330
2016-09-04T09:14:23.011Z,375
2016-09-04T09:15:22.956Z,435
2016-09-04T09:16:22.900Z,465
2016-09-04T09:17:22.909Z,440
2016-09-04T09:18:23.310Z,450
2016-09-04T09:19:23.459Z,430
2016-09-04T09:20:23.036Z,255
2016-09-04T09:21:25.287Z,165
2016-09-04T09:22:22.930Z,160
2016-09-04T09:23:23.012Z,205
2016-09-04T09:24:22.985Z,195
2016-09-04T09:25:22.915Z,270
2016-09-04T09:26:22.922Z,275
2016-09-04T09:27:22.957Z,200
2016-09-04T09:28:22.915Z,165
2016-09-04T09:29:22.928Z,165
2016-09-04T09:30:22.925Z,140
2016-09-04T09:31:22.962Z,105
2016-09-04T09:32:23.001Z,90
2016-09-04T09:33:22.931Z,70
2016-09-04T09:34:22.934Z,65
2016-09-04T09:35:22.946Z,65
2016-09-04T09:36:22.952Z,65
2016-09-04T09:37:22.974Z,70
2016-09-04T09:38:22.966Z,70
2016-09-04T09:39:23.018Z,60
2016-09-04T09:40:22.990Z,50
2016-09-04T09:41:23.000Z,50
2016-09-04T09:42:22.961Z,55
2016-09-04T09:43:22.949Z,65
2016-09-04T09:44:23.004Z,80
2016-09-04T09:45:22.996Z,85
2016-09-04T09:46:22.990Z,90
2016-09-04T09:47:22.958Z,95
2016-09-04T09:48:23.061Z,115
2016-09-04T09:49:22.992Z,100
2016-09-04T09:50:22.975Z,105
2016-09-04T09:51:23.196Z,120
2016-09-04T09:52:22.940Z,85
2016-09-04T09:53:22.995Z,80
2016-09-04T09:54:22.966Z,90
2016-09-04T09:55:23.025Z,110
2016-09-04T09:56:22.928Z,80
2016-09-04T09:57:23.237Z,80
2016-09-04T09:58:22.981Z,65
2016-09-04T09:59:23.923Z,55
2016-09-04T10:00:22.981Z,55
2016-09-04T10:01:23.028Z,50
2016-09-04T10:02:22.972Z,40
2016-09-04T10:03:22.974Z,45
2016-09-04T10:04:22.980Z,50
2016-09-04T10:05:23.127Z,50
2016-09-04T10:06:22.976Z,70
2016-09-04T10:07:22.975Z,90
2016-09-04T10:08:22.994Z,90
2016-09-04T10:09:23.876Z,45
2016-09-04T10:10:23.037Z,35
2016-09-04T10:11:24.032Z,35
2016-09-04T10:12:23.007Z,30
2016-09-04T10:13:22.983Z,45
2016-09-04T10:14:23.008Z,70
2016-09-04T10:15:22.994Z,115
2016-09-04T10:16:23.029Z,135
2016-09-04T10:17:22.994Z,170
2016-09-04T10:18:22.943Z,195
2016-09-04T10:19:23.020Z,170
2016-09-04T10:20:46.976Z,95
2016-09-04T10:22:13.758Z,165
2016-09-04T10:22:47.426Z,220
2016-09-04T10:23:48.502Z,280
2016-09-04T10:24:44.303Z,290
2016-09-04T10:26:47.022Z,315
2016-09-04T10:28:29.171Z,425
2016-09-04T10:30:31.095Z,430
2016-09-04T10:32:16.223Z,495
2016-09-04T10:33:53.573Z,455
2016-09-04T10:35:33.410Z,265
2016-09-04T10:36:55.986Z,245
2016-09-04T10:37:57.221Z,300
2016-09-04T10:39:03.971Z,325
2016-09-04T10:40:14.039Z,395
2016-09-04T10:40:24.210Z,455
2016-09-04T10:42:10.820Z,400
2016-09-04T10:43:18.659Z,470
2016-09-04T10:44:25.978Z,310
2016-09-04T10:45:24.646Z,300
2016-09-04T10:45:45.347Z,310
2016-09-04T10:46:45.134Z,435
2016-09-04T10:47:45.150Z,325
2016-09-04T10:48:45.119Z,215
2016-09-04T10:49:45.172Z,200
2016-09-04T10:50:45.132Z,195
2016-09-04T10:51:45.180Z,275
2016-09-04T10:52:45.214Z,215
2016-09-04T10:53:45.211Z,150
2016-09-04T10:54:45.243Z,165
2016-09-04T10:55:45.189Z,210
2016-09-04T10:56:45.377Z,255
2016-09-04T10:57:45.163Z,265
2016-09-04T10:58:45.154Z,350
2016-09-04T10:59:45.164Z,245
2016-09-04T11:00:45.153Z,230
2016-09-04T11:01:45.281Z,185
2016-09-04T11:02:45.583Z,165
2016-09-04T11:03:46.214Z,215
2016-09-04T11:04:52.169Z,325
2016-09-04T11:05:56.582Z,375
2016-09-04T11:07:40.212Z,325
2016-09-04T11:09:11.704Z,390
2016-09-04T11:09:38.893Z,330
2016-09-04T11:11:08.366Z,290
2016-09-04T11:11:29.177Z,265
2016-09-04T11:12:29.169Z,145
2016-09-04T11:13:29.003Z,125
2016-09-04T11:14:29.048Z,130
2016-09-04T11:15:29.053Z,170
2016-09-04T11:16:29.019Z,185
2016-09-04T11:17:29.028Z,165
2016-09-04T11:18:34.695Z,145
2016-09-04T11:19:46.541Z,220
2016-09-04T11:20:31.360Z,280
2016-09-04T11:21:29.333Z,240
2016-09-04T11:22:29.038Z,150
2016-09-04T11:23:29.434Z,145
2016-09-04T11:24:29.523Z,165
2016-09-04T11:25:29.049Z,165
2016-09-04T11:26:29.197Z,175
2016-09-04T11:27:29.039Z,155
2016-09-04T11:28:29.077Z,170
2016-09-04T11:29:29.146Z,225
2016-09-04T11:30:29.164Z,265
2016-09-04T11:31:29.493Z,200
2016-09-04T11:32:29.076Z,240
2016-09-04T11:33:29.391Z,250
2016-09-04T11:34:29.147Z,300
2016-09-04T11:35:29.052Z,470
2016-09-04T11:36:29.022Z,410
2016-09-04T11:37:29.046Z,365
2016-09-04T11:38:29.104Z,380
2016-09-04T11:39:29.042Z,280
2016-09-04T11:40:29.082Z,265
2016-09-04T11:41:29.471Z,190
2016-09-04T11:42:29.028Z,155
2016-09-04T11:43:29.050Z,140
2016-09-04T11:44:29.037Z,125
2016-09-04T11:45:29.036Z,110
2016-09-04T11:46:29.050Z,110
2016-09-04T11:47:29.058Z,100
2016-09-04T11:48:29.015Z,95
2016-09-04T11:49:29.075Z,95
2016-09-04T11:50:29.085Z,105
2016-09-04T11:51:29.053Z,110
2016-09-04T11:52:29.080Z,125
2016-09-04T11:53:29.126Z,135
2016-09-04T11:54:29.089Z,135
2016-09-04T11:55:29.201Z,130
2016-09-04T11:56:29.272Z,120
2016-09-04T11:57:30.477Z,115
2016-09-04T11:58:29.371Z,110
2016-09-04T11:59:29.293Z,115
2016-09-04T12:00:29.399Z,135
2016-09-04T12:01:29.198Z,205
2016-09-04T12:03:41.897Z,165
2016-09-04T12:05:01.282Z,210
2016-09-04T12:06:24.504Z,170
2016-09-04T12:07:47.426Z,170
2016-09-04T12:09:10.453Z,165
2016-09-04T12:09:35.612Z,255
2016-09-04T12:10:32.576Z,180
2016-09-04T12:11:32.610Z,180
2016-09-04T12:12:32.676Z,165
2016-09-04T12:13:39.121Z,175
2016-09-04T12:14:32.605Z,280
2016-09-04T12:15:32.550Z,215
2016-09-04T12:16:32.735Z,165
2016-09-04T12:17:38.675Z,180
2016-09-04T12:19:07.000Z,170
2016-09-04T12:19:34.403Z,145
2016-09-04T12:21:18.101Z,130
2016-09-04T12:22:29.040Z,125
2016-09-04T12:23:22.897Z,130
2016-09-04T12:25:01.946Z,130
2016-09-04T12:28:00.393Z,170
2016-09-04T12:28:25.331Z,130
2016-09-04T12:29:51.859Z,130
2016-09-04T12:31:09.639Z,130
2016-09-04T12:32:19.120Z,130
2016-09-04T12:33:33.188Z,130
2016-09-04T12:34:59.293Z,130
2016-09-04T12:36:17.081Z,130
2016-09-04T12:37:10.583Z,135
2016-09-04T12:37:44.394Z,135
2016-09-04T12:38:42.118Z,140
2016-09-04T12:39:40.369Z,140
2016-09-04T12:40:52.324Z,160
2016-09-04T12:41:39.872Z,155
2016-09-04T12:42:38.937Z,140
2016-09-04T12:43:39.190Z,140
2016-09-04T12:44:39.139Z,135
2016-09-04T12:45:39.249Z,135
2016-09-04T12:46:38.857Z,135
2016-09-04T12:47:39.243Z,135
2016-09-04T12:48:38.792Z,135
2016-09-04T12:49:38.833Z,135
2016-09-04T12:50:38.799Z,130
2016-09-04T12:51:38.773Z,120
2016-09-04T12:52:38.880Z,140
2016-09-04T12:53:38.783Z,130
2016-09-04T12:54:39.091Z,150
2016-09-04T12:55:39.069Z,180
2016-09-04T12:56:38.844Z,205
2016-09-04T12:57:38.908Z,230
2016-09-04T12:58:38.829Z,240
2016-09-04T12:59:38.825Z,250
2016-09-04T13:00:38.821Z,235
2016-09-04T13:01:38.750Z,210
2016-09-04T13:02:38.756Z,205
2016-09-04T13:03:38.978Z,220
2016-09-04T13:04:38.827Z,235
2016-09-04T13:05:38.839Z,230
2016-09-04T13:06:38.859Z,225
2016-09-04T13:07:38.879Z,185
2016-09-04T13:08:38.820Z,165
2016-09-04T13:09:38.813Z,135
2016-09-04T13:10:38.881Z,80
2016-09-04T13:11:38.899Z,105
2016-09-04T13:12:39.046Z,180
2016-09-04T13:13:39.029Z,235
2016-09-04T13:14:38.832Z,240
2016-09-04T13:15:39.103Z,215
2016-09-04T13:16:39.316Z,205
2016-09-04T13:17:39.010Z,210
2016-09-04T13:18:39.504Z,200
2016-09-04T13:19:38.892Z,215
2016-09-04T13:20:39.973Z,225
2016-09-04T13:21:38.883Z,235
2016-09-04T13:22:39.049Z,260
2016-09-04T13:23:39.174Z,285
2016-09-04T13:24:38.828Z,320
2016-09-04T13:25:39.065Z,310
2016-09-04T13:26:39.244Z,260
2016-09-04T13:27:39.502Z,245
2016-09-04T13:28:39.149Z,220
2016-09-04T13:29:39.126Z,215
2016-09-04T13:30:38.934Z,205
2016-09-04T13:31:39.023Z,200
2016-09-04T13:32:39.160Z,225
2016-09-04T13:33:38.938Z,200
2016-09-04T13:34:39.027Z,225
2016-09-04T13:35:38.995Z,225
2016-09-04T13:36:39.045Z,245
2016-09-04T13:37:38.973Z,245
2016-09-04T13:38:39.024Z,200
2016-09-04T13:39:38.960Z,200
2016-09-04T13:40:38.847Z,235
2016-09-04T13:41:38.894Z,265
2016-09-04T13:42:38.948Z,265
2016-09-04T13:43:38.853Z,250
2016-09-04T13:44:38.845Z,195
2016-09-04T13:45:38.842Z,180
2016-09-04T13:46:39.049Z,180
2016-09-04T13:47:38.914Z,200
2016-09-04T13:48:38.834Z,245
2016-09-04T13:49:38.942Z,250
2016-09-04T13:50:38.914Z,215
2016-09-04T13:51:38.832Z,255
2016-09-04T13:52:38.870Z,245
2016-09-04T13:53:38.933Z,180
2016-09-04T13:54:38.935Z,160
2016-09-04T13:55:38.840Z,140
2016-09-04T13:56:38.964Z,180
2016-09-04T13:57:38.849Z,165
2016-09-04T13:58:38.838Z,180
2016-09-04T13:59:38.848Z,190
2016-09-04T14:00:38.964Z,190
2016-09-04T14:01:38.945Z,200
2016-09-04T14:02:38.945Z,190
2016-09-04T14:03:38.937Z,180
2016-09-04T14:04:39.031Z,165
2016-09-04T14:05:39.096Z,150
2016-09-04T14:06:38.901Z,140
2016-09-04T14:07:38.906Z,135
2016-09-04T14:08:38.986Z,120
2016-09-04T14:09:39.036Z,120
2016-09-04T14:10:39.107Z,140
2016-09-04T14:11:39.069Z,170
2016-09-04T14:12:38.922Z,165
2016-09-04T14:13:38.862Z,155
2016-09-04T14:14:38.848Z,140
2016-09-04T14:15:38.880Z,135
2016-09-04T14:16:38.915Z,130
2016-09-04T14:17:39.032Z,135
2016-09-04T14:18:38.942Z,150
2016-09-04T14:19:38.903Z,140
2016-09-04T14:20:38.862Z,145
2016-09-04T14:21:39.047Z,170
2016-09-04T14:22:38.867Z,185
2016-09-04T14:23:38.875Z,220
2016-09-04T14:24:38.875Z,240
2016-09-04T14:25:38.896Z,245
2016-09-04T14:26:38.924Z,250